FALE

King Shaka International Airport

Durban, South Africa
METAR FALE 152000Z 24004KT 9999 FEW012 BKN044 13/09 Q1039 NOSIG
Observed Flight Rules
Jul-15 @ 20:00 UTC (50 minutes ago) Visual Flight Rules
Wind Visibility Clouds
240° at 4 knots 10,000+ meters
  • Few at 1,200' AGL
  • Broken at 4,400' AGL
Temperatures Readings
Current 13°C / 55°F
Dewpoint 9°C / 48°F
Humidity 77%
Altimeter 30.68" Hg
Pressure 1039 hPa
Elevation 109
METAR FALE 152000Z 24004KT 9999 FEW012 BKN044 13/09 Q1039 NOSIG
Observed Flight Rules
Jul-15 @ 20:00 UTC
(50 minutes ago)
VFR
Wind Visibility
240° at 4 knots 10,000+ meters
Clouds
  • Few at 1,200' AGL
  • Broken at 4,400' AGL
Temperature Dewpoint
13°C / 55°F 9°C / 48°F
Humidity Altimeter Pressure
77% 30.68" Hg 1039 hPa